sensor_id;sensor_type;location;lat;lon;timestamp;temperature;humidity
39045;DHT22;52192;52.002;5.956;2023-08-31T00:00:09;15.60;75.50
39045;DHT22;52192;52.002;5.956;2023-08-31T00:02:36;15.50;75.60
39045;DHT22;52192;52.002;5.956;2023-08-31T00:05:02;15.50;75.70
39045;DHT22;52192;52.002;5.956;2023-08-31T00:07:29;15.50;75.70
39045;DHT22;52192;52.002;5.956;2023-08-31T00:09:54;15.50;75.90
39045;DHT22;52192;52.002;5.956;2023-08-31T00:12:20;15.50;76.10
39045;DHT22;52192;52.002;5.956;2023-08-31T00:14:49;15.40;76.30
39045;DHT22;52192;52.002;5.956;2023-08-31T00:17:15;15.40;76.50
39045;DHT22;52192;52.002;5.956;2023-08-31T00:19:41;15.40;76.60
39045;DHT22;52192;52.002;5.956;2023-08-31T00:22:06;15.40;76.50
39045;DHT22;52192;52.002;5.956;2023-08-31T00:24:32;15.40;76.50
39045;DHT22;52192;52.002;5.956;2023-08-31T00:26:58;15.40;76.50
39045;DHT22;52192;52.002;5.956;2023-08-31T00:29:24;15.40;76.80
39045;DHT22;52192;52.002;5.956;2023-08-31T00:31:51;15.40;76.90
39045;DHT22;52192;52.002;5.956;2023-08-31T00:34:19;15.40;77.00
39045;DHT22;52192;52.002;5.956;2023-08-31T00:36:44;15.40;76.80
39045;DHT22;52192;52.002;5.956;2023-08-31T00:39:10;15.30;77.10
39045;DHT22;52192;52.002;5.956;2023-08-31T00:41:36;15.30;77.30
39045;DHT22;52192;52.002;5.956;2023-08-31T00:44:03;15.30;77.30
39045;DHT22;52192;52.002;5.956;2023-08-31T00:46:31;15.30;77.20
39045;DHT22;52192;52.002;5.956;2023-08-31T00:48:57;15.30;77.30
39045;DHT22;52192;52.002;5.956;2023-08-31T00:51:24;15.30;77.20
39045;DHT22;52192;52.002;5.956;2023-08-31T00:53:53;15.30;77.30
39045;DHT22;52192;52.002;5.956;2023-08-31T00:56:20;15.20;77.50
39045;DHT22;52192;52.002;5.956;2023-08-31T00:58:46;15.20;77.70
39045;DHT22;52192;52.002;5.956;2023-08-31T01:04:08;15.10;78.00
39045;DHT22;52192;52.002;5.956;2023-08-31T01:09:22;15.00;78.40
39045;DHT22;52192;52.002;5.956;2023-08-31T01:12:09;15.00;78.50
39045;DHT22;52192;52.002;5.956;2023-08-31T01:15:10;15.00;78.50
39045;DHT22;52192;52.002;5.956;2023-08-31T01:17:40;15.00;78.60
39045;DHT22;52192;52.002;5.956;2023-08-31T01:20:10;15.00;78.80
39045;DHT22;52192;52.002;5.956;2023-08-31T01:22:58;15.00;79.40
39045;DHT22;52192;52.002;5.956;2023-08-31T01:25:26;15.00;79.20
39045;DHT22;52192;52.002;5.956;2023-08-31T01:27:52;15.00;79.20
39045;DHT22;52192;52.002;5.956;2023-08-31T01:30:18;15.00;79.10
39045;DHT22;52192;52.002;5.956;2023-08-31T01:32:45;15.00;79.10
39045;DHT22;52192;52.002;5.956;2023-08-31T01:35:11;15.10;79.10
39045;DHT22;52192;52.002;5.956;2023-08-31T01:37:47;15.10;79.10
39045;DHT22;52192;52.002;5.956;2023-08-31T01:40:38;15.10;79.10
39045;DHT22;52192;52.002;5.956;2023-08-31T01:43:06;15.10;79.10
39045;DHT22;52192;52.002;5.956;2023-08-31T01:45:33;15.10;79.20
39045;DHT22;52192;52.002;5.956;2023-08-31T01:47:59;15.10;79.10
39045;DHT22;52192;52.002;5.956;2023-08-31T01:50:25;15.10;79.10
39045;DHT22;52192;52.002;5.956;2023-08-31T01:52:51;15.10;79.30
39045;DHT22;52192;52.002;5.956;2023-08-31T01:55:21;15.00;79.50
39045;DHT22;52192;52.002;5.956;2023-08-31T01:57:47;15.00;79.70
39045;DHT22;52192;52.002;5.956;2023-08-31T02:00:14;15.00;80.10
39045;DHT22;52192;52.002;5.956;2023-08-31T02:02:40;15.00;80.00
39045;DHT22;52192;52.002;5.956;2023-08-31T02:05:07;14.90;80.00
39045;DHT22;52192;52.002;5.956;2023-08-31T02:07:33;15.00;80.00
39045;DHT22;52192;52.002;5.956;2023-08-31T02:09:59;15.00;79.90
39045;DHT22;52192;52.002;5.956;2023-08-31T02:12:24;15.00;79.90
39045;DHT22;52192;52.002;5.956;2023-08-31T02:14:50;15.00;80.10
39045;DHT22;52192;52.002;5.956;2023-08-31T02:17:16;15.00;80.30
39045;DHT22;52192;52.002;5.956;2023-08-31T02:19:42;15.00;80.40
39045;DHT22;52192;52.002;5.956;2023-08-31T02:22:08;15.00;80.30
39045;DHT22;52192;52.002;5.956;2023-08-31T02:24:33;15.00;80.40
39045;DHT22;52192;52.002;5.956;2023-08-31T02:26:59;15.00;80.50
39045;DHT22;52192;52.002;5.956;2023-08-31T02:29:25;15.00;80.40
39045;DHT22;52192;52.002;5.956;2023-08-31T02:31:50;15.10;80.20
39045;DHT22;52192;52.002;5.956;2023-08-31T02:34:16;15.10;80.00
39045;DHT22;52192;52.002;5.956;2023-08-31T02:36:42;15.10;80.10
39045;DHT22;52192;52.002;5.956;2023-08-31T02:39:07;15.10;80.20
39045;DHT22;52192;52.002;5.956;2023-08-31T02:41:33;15.10;80.30
39045;DHT22;52192;52.002;5.956;2023-08-31T02:43:59;15.10;80.30
39045;DHT22;52192;52.002;5.956;2023-08-31T02:46:24;15.10;80.40
39045;DHT22;52192;52.002;5.956;2023-08-31T02:48:50;15.10;80.40
39045;DHT22;52192;52.002;5.956;2023-08-31T02:51:16;15.10;80.40
39045;DHT22;52192;52.002;5.956;2023-08-31T02:53:41;15.20;80.50
39045;DHT22;52192;52.002;5.956;2023-08-31T02:56:07;15.20;80.70
39045;DHT22;52192;52.002;5.956;2023-08-31T02:58:33;15.20;80.60
39045;DHT22;52192;52.002;5.956;2023-08-31T03:01:09;15.30;80.50
39045;DHT22;52192;52.002;5.956;2023-08-31T03:03:37;15.30;80.40
39045;DHT22;52192;52.002;5.956;2023-08-31T03:06:05;15.30;80.50
39045;DHT22;52192;52.002;5.956;2023-08-31T03:08:31;15.40;80.50
39045;DHT22;52192;52.002;5.956;2023-08-31T03:10:57;15.40;80.40
39045;DHT22;52192;52.002;5.956;2023-08-31T03:13:24;15.40;80.20
39045;DHT22;52192;52.002;5.956;2023-08-31T03:15:50;15.40;80.20
39045;DHT22;52192;52.002;5.956;2023-08-31T03:18:15;15.40;80.30
39045;DHT22;52192;52.002;5.956;2023-08-31T03:20:41;15.50;80.20
39045;DHT22;52192;52.002;5.956;2023-08-31T03:23:07;15.50;80.10
39045;DHT22;52192;52.002;5.956;2023-08-31T03:25:34;15.50;80.20
39045;DHT22;52192;52.002;5.956;2023-08-31T03:28:00;15.50;80.20
39045;DHT22;52192;52.002;5.956;2023-08-31T03:30:26;15.40;80.40
39045;DHT22;52192;52.002;5.956;2023-08-31T03:32:51;15.40;81.10
39045;DHT22;52192;52.002;5.956;2023-08-31T03:35:17;15.40;80.70
39045;DHT22;52192;52.002;5.956;2023-08-31T03:37:46;15.40;80.90
39045;DHT22;52192;52.002;5.956;2023-08-31T03:40:12;15.40;81.00
39045;DHT22;52192;52.002;5.956;2023-08-31T03:42:37;15.40;81.00
39045;DHT22;52192;52.002;5.956;2023-08-31T03:45:03;15.40;80.80
39045;DHT22;52192;52.002;5.956;2023-08-31T03:47:29;15.50;80.70
39045;DHT22;52192;52.002;5.956;2023-08-31T03:49:55;15.50;80.60
39045;DHT22;52192;52.002;5.956;2023-08-31T03:52:21;15.50;80.60
39045;DHT22;52192;52.002;5.956;2023-08-31T03:54:48;15.50;80.50
39045;DHT22;52192;52.002;5.956;2023-08-31T03:57:14;15.50;80.40
39045;DHT22;52192;52.002;5.956;2023-08-31T03:59:49;15.50;80.40
39045;DHT22;52192;52.002;5.956;2023-08-31T04:02:14;15.40;80.40
39045;DHT22;52192;52.002;5.956;2023-08-31T04:04:40;15.40;80.40
39045;DHT22;52192;52.002;5.956;2023-08-31T04:07:06;15.40;80.40
39045;DHT22;52192;52.002;5.956;2023-08-31T04:09:32;15.40;80.50
39045;DHT22;52192;52.002;5.956;2023-08-31T04:11:58;15.40;80.40
39045;DHT22;52192;52.002;5.956;2023-08-31T04:14:26;15.40;80.40
39045;DHT22;52192;52.002;5.956;2023-08-31T04:16:51;15.50;80.50
39045;DHT22;52192;52.002;5.956;2023-08-31T04:19:17;15.50;80.50
39045;DHT22;52192;52.002;5.956;2023-08-31T04:21:43;15.50;80.60
39045;DHT22;52192;52.002;5.956;2023-08-31T04:24:09;15.50;80.70
39045;DHT22;52192;52.002;5.956;2023-08-31T04:26:35;15.50;80.70
39045;DHT22;52192;52.002;5.956;2023-08-31T04:29:02;15.50;80.80
39045;DHT22;52192;52.002;5.956;2023-08-31T04:31:28;15.50;80.90
39045;DHT22;52192;52.002;5.956;2023-08-31T04:33:54;15.50;80.90
39045;DHT22;52192;52.002;5.956;2023-08-31T04:36:21;15.50;81.00
39045;DHT22;52192;52.002;5.956;2023-08-31T04:38:47;15.50;81.00
39045;DHT22;52192;52.002;5.956;2023-08-31T04:41:14;15.50;81.00
39045;DHT22;52192;52.002;5.956;2023-08-31T04:43:40;15.50;81.10
39045;DHT22;52192;52.002;5.956;2023-08-31T04:46:06;15.50;81.00
39045;DHT22;52192;52.002;5.956;2023-08-31T04:48:32;15.50;81.00
39045;DHT22;52192;52.002;5.956;2023-08-31T04:50:58;15.50;81.00
39045;DHT22;52192;52.002;5.956;2023-08-31T04:53:24;15.50;81.10
39045;DHT22;52192;52.002;5.956;2023-08-31T04:55:50;15.50;81.00
39045;DHT22;52192;52.002;5.956;2023-08-31T04:58:15;15.50;81.00
39045;DHT22;52192;52.002;5.956;2023-08-31T05:00:41;15.50;81.10
39045;DHT22;52192;52.002;5.956;2023-08-31T05:03:07;15.50;81.20
39045;DHT22;52192;52.002;5.956;2023-08-31T05:05:32;15.50;81.30
39045;DHT22;52192;52.002;5.956;2023-08-31T05:07:58;15.50;81.30
39045;DHT22;52192;52.002;5.956;2023-08-31T05:10:24;15.50;81.30
39045;DHT22;52192;52.002;5.956;2023-08-31T05:12:50;15.50;81.40
39045;DHT22;52192;52.002;5.956;2023-08-31T05:15:16;15.50;81.70
39045;DHT22;52192;52.002;5.956;2023-08-31T05:17:42;15.50;81.90
39045;DHT22;52192;52.002;5.956;2023-08-31T05:20:08;15.50;82.10
39045;DHT22;52192;52.002;5.956;2023-08-31T05:22:35;15.50;82.10
39045;DHT22;52192;52.002;5.956;2023-08-31T05:25:01;15.40;82.10
39045;DHT22;52192;52.002;5.956;2023-08-31T05:27:27;15.50;82.30
39045;DHT22;52192;52.002;5.956;2023-08-31T05:29:53;15.40;82.50
39045;DHT22;52192;52.002;5.956;2023-08-31T05:32:18;15.40;82.40
39045;DHT22;52192;52.002;5.956;2023-08-31T05:34:44;15.50;82.50
39045;DHT22;52192;52.002;5.956;2023-08-31T05:37:09;15.50;82.50
39045;DHT22;52192;52.002;5.956;2023-08-31T05:39:35;15.50;82.50
39045;DHT22;52192;52.002;5.956;2023-08-31T05:42:01;15.50;82.50
39045;DHT22;52192;52.002;5.956;2023-08-31T05:44:27;15.50;82.60
39045;DHT22;52192;52.002;5.956;2023-08-31T05:46:52;15.50;82.80
39045;DHT22;52192;52.002;5.956;2023-08-31T05:49:18;15.60;82.80
39045;DHT22;52192;52.002;5.956;2023-08-31T05:51:44;15.60;82.80
39045;DHT22;52192;52.002;5.956;2023-08-31T05:54:09;15.60;83.00
39045;DHT22;52192;52.002;5.956;2023-08-31T05:56:39;15.60;83.00
39045;DHT22;52192;52.002;5.956;2023-08-31T05:59:07;15.60;83.20
39045;DHT22;52192;52.002;5.956;2023-08-31T06:01:34;15.50;83.30
39045;DHT22;52192;52.002;5.956;2023-08-31T06:04:00;15.50;83.40
39045;DHT22;52192;52.002;5.956;2023-08-31T06:06:25;15.60;83.50
39045;DHT22;52192;52.002;5.956;2023-08-31T06:08:51;15.50;83.60
39045;DHT22;52192;52.002;5.956;2023-08-31T06:11:19;15.50;83.60
39045;DHT22;52192;52.002;5.956;2023-08-31T06:13:44;15.60;83.90
39045;DHT22;52192;52.002;5.956;2023-08-31T06:16:10;15.50;83.90
39045;DHT22;52192;52.002;5.956;2023-08-31T06:18:36;15.50;84.10
39045;DHT22;52192;52.002;5.956;2023-08-31T06:21:01;15.50;84.20
39045;DHT22;52192;52.002;5.956;2023-08-31T06:23:27;15.50;84.40
39045;DHT22;52192;52.002;5.956;2023-08-31T06:25:53;15.50;84.30
39045;DHT22;52192;52.002;5.956;2023-08-31T06:28:18;15.50;84.30
39045;DHT22;52192;52.002;5.956;2023-08-31T06:30:44;15.50;84.30
39045;DHT22;52192;52.002;5.956;2023-08-31T06:33:16;15.60;84.20
39045;DHT22;52192;52.002;5.956;2023-08-31T06:35:45;15.60;84.00
39045;DHT22;52192;52.002;5.956;2023-08-31T06:38:11;15.60;84.10
39045;DHT22;52192;52.002;5.956;2023-08-31T06:40:36;15.60;84.10
39045;DHT22;52192;52.002;5.956;2023-08-31T06:43:02;15.70;84.10
39045;DHT22;52192;52.002;5.956;2023-08-31T06:45:29;15.80;84.10
39045;DHT22;52192;52.002;5.956;2023-08-31T06:47:54;15.90;84.00
39045;DHT22;52192;52.002;5.956;2023-08-31T06:50:20;16.10;83.80
39045;DHT22;52192;52.002;5.956;2023-08-31T06:52:46;16.20;83.40
39045;DHT22;52192;52.002;5.956;2023-08-31T06:55:12;16.20;83.40
39045;DHT22;52192;52.002;5.956;2023-08-31T06:57:37;16.10;83.40
39045;DHT22;52192;52.002;5.956;2023-08-31T07:00:04;16.10;83.50
39045;DHT22;52192;52.002;5.956;2023-08-31T07:02:31;16.00;83.60
39045;DHT22;52192;52.002;5.956;2023-08-31T07:04:57;15.90;83.70
39045;DHT22;52192;52.002;5.956;2023-08-31T07:07:22;15.90;84.00
39045;DHT22;52192;52.002;5.956;2023-08-31T07:09:48;15.80;84.10
39045;DHT22;52192;52.002;5.956;2023-08-31T07:12:14;15.80;84.30
39045;DHT22;52192;52.002;5.956;2023-08-31T07:14:40;15.80;84.30
39045;DHT22;52192;52.002;5.956;2023-08-31T07:17:06;15.80;84.40
39045;DHT22;52192;52.002;5.956;2023-08-31T07:19:34;15.80;84.40
39045;DHT22;52192;52.002;5.956;2023-08-31T07:22:00;15.90;84.30
39045;DHT22;52192;52.002;5.956;2023-08-31T07:24:26;16.00;84.20
39045;DHT22;52192;52.002;5.956;2023-08-31T07:26:51;16.00;84.40
39045;DHT22;52192;52.002;5.956;2023-08-31T07:29:17;16.00;84.30
39045;DHT22;52192;52.002;5.956;2023-08-31T07:31:43;16.00;84.30
39045;DHT22;52192;52.002;5.956;2023-08-31T07:34:09;16.00;84.30
39045;DHT22;52192;52.002;5.956;2023-08-31T07:36:34;15.90;84.40
39045;DHT22;52192;52.002;5.956;2023-08-31T07:39:00;15.90;84.40
39045;DHT22;52192;52.002;5.956;2023-08-31T07:41:26;15.90;84.50
39045;DHT22;52192;52.002;5.956;2023-08-31T07:43:51;15.90;84.50
39045;DHT22;52192;52.002;5.956;2023-08-31T07:46:18;16.00;84.50
39045;DHT22;52192;52.002;5.956;2023-08-31T07:48:43;16.00;84.40
39045;DHT22;52192;52.002;5.956;2023-08-31T07:51:09;16.10;84.50
39045;DHT22;52192;52.002;5.956;2023-08-31T07:53:35;16.20;84.80
39045;DHT22;52192;52.002;5.956;2023-08-31T07:56:01;16.30;84.60
39045;DHT22;52192;52.002;5.956;2023-08-31T07:58:26;16.40;84.40
39045;DHT22;52192;52.002;5.956;2023-08-31T08:00:53;16.40;84.30
39045;DHT22;52192;52.002;5.956;2023-08-31T08:03:19;16.40;84.00
39045;DHT22;52192;52.002;5.956;2023-08-31T08:05:45;16.40;84.00
39045;DHT22;52192;52.002;5.956;2023-08-31T08:08:11;16.40;83.90
39045;DHT22;52192;52.002;5.956;2023-08-31T08:10:36;16.40;84.20
39045;DHT22;52192;52.002;5.956;2023-08-31T08:13:02;16.40;84.30
39045;DHT22;52192;52.002;5.956;2023-08-31T08:15:29;16.40;84.30
39045;DHT22;52192;52.002;5.956;2023-08-31T08:17:55;16.40;84.30
39045;DHT22;52192;52.002;5.956;2023-08-31T08:20:23;16.30;84.30
39045;DHT22;52192;52.002;5.956;2023-08-31T08:22:49;16.30;84.50
39045;DHT22;52192;52.002;5.956;2023-08-31T08:25:21;16.40;84.50
39045;DHT22;52192;52.002;5.956;2023-08-31T08:27:47;16.40;84.50
39045;DHT22;52192;52.002;5.956;2023-08-31T08:30:13;16.50;84.40
39045;DHT22;52192;52.002;5.956;2023-08-31T08:32:41;16.60;84.40
39045;DHT22;52192;52.002;5.956;2023-08-31T08:35:07;16.60;84.40
39045;DHT22;52192;52.002;5.956;2023-08-31T08:37:33;16.70;84.20
39045;DHT22;52192;52.002;5.956;2023-08-31T08:39:59;16.80;83.90
39045;DHT22;52192;52.002;5.956;2023-08-31T08:42:25;16.80;83.80
39045;DHT22;52192;52.002;5.956;2023-08-31T08:44:51;16.90;83.90
39045;DHT22;52192;52.002;5.956;2023-08-31T08:47:20;17.00;84.00
39045;DHT22;52192;52.002;5.956;2023-08-31T08:49:47;17.10;84.00
39045;DHT22;52192;52.002;5.956;2023-08-31T08:52:14;17.20;83.80
39045;DHT22;52192;52.002;5.956;2023-08-31T08:54:40;17.30;83.30
39045;DHT22;52192;52.002;5.956;2023-08-31T08:57:06;17.30;83.10
39045;DHT22;52192;52.002;5.956;2023-08-31T08:59:32;17.20;83.00
39045;DHT22;52192;52.002;5.956;2023-08-31T09:01:57;17.20;83.10
39045;DHT22;52192;52.002;5.956;2023-08-31T09:04:23;17.30;83.10
39045;DHT22;52192;52.002;5.956;2023-08-31T09:06:52;17.40;83.10
39045;DHT22;52192;52.002;5.956;2023-08-31T09:09:18;17.40;82.90
39045;DHT22;52192;52.002;5.956;2023-08-31T09:11:45;17.50;83.20
39045;DHT22;52192;52.002;5.956;2023-08-31T09:14:16;17.50;83.40
39045;DHT22;52192;52.002;5.956;2023-08-31T09:16:48;17.60;83.50
39045;DHT22;52192;52.002;5.956;2023-08-31T09:19:22;17.70;83.50
39045;DHT22;52192;52.002;5.956;2023-08-31T09:21:52;17.90;83.30
39045;DHT22;52192;52.002;5.956;2023-08-31T09:24:18;18.10;83.00
39045;DHT22;52192;52.002;5.956;2023-08-31T09:26:44;18.40;81.20
39045;DHT22;52192;52.002;5.956;2023-08-31T09:29:12;18.60;81.80
39045;DHT22;52192;52.002;5.956;2023-08-31T09:31:42;18.80;81.10
39045;DHT22;52192;52.002;5.956;2023-08-31T09:34:08;19.00;80.80
39045;DHT22;52192;52.002;5.956;2023-08-31T09:36:34;19.30;79.90
39045;DHT22;52192;52.002;5.956;2023-08-31T09:39:00;19.40;78.80
39045;DHT22;52192;52.002;5.956;2023-08-31T09:41:25;19.40;78.70
39045;DHT22;52192;52.002;5.956;2023-08-31T09:43:51;19.50;78.10
39045;DHT22;52192;52.002;5.956;2023-08-31T09:46:17;19.40;77.90
39045;DHT22;52192;52.002;5.956;2023-08-31T09:48:43;19.60;77.80
39045;DHT22;52192;52.002;5.956;2023-08-31T09:51:14;19.60;77.20
39045;DHT22;52192;52.002;5.956;2023-08-31T09:53:41;19.60;77.40
39045;DHT22;52192;52.002;5.956;2023-08-31T09:56:08;19.60;76.20
39045;DHT22;52192;52.002;5.956;2023-08-31T09:58:35;19.70;75.00
39045;DHT22;52192;52.002;5.956;2023-08-31T10:01:01;19.80;75.20
39045;DHT22;52192;52.002;5.956;2023-08-31T10:03:28;19.80;75.50
39045;DHT22;52192;52.002;5.956;2023-08-31T10:05:54;20.00;75.10
39045;DHT22;52192;52.002;5.956;2023-08-31T10:08:22;20.40;74.80
39045;DHT22;52192;52.002;5.956;2023-08-31T10:10:49;20.50;73.70
39045;DHT22;52192;52.002;5.956;2023-08-31T10:13:16;20.30;71.60
39045;DHT22;52192;52.002;5.956;2023-08-31T10:15:43;20.00;72.60
39045;DHT22;52192;52.002;5.956;2023-08-31T10:18:09;19.80;73.30
39045;DHT22;52192;52.002;5.956;2023-08-31T10:20:35;19.50;73.90
39045;DHT22;52192;52.002;5.956;2023-08-31T10:23:05;19.30;74.70
39045;DHT22;52192;52.002;5.956;2023-08-31T10:28:22;19.00;75.30
39045;DHT22;52192;52.002;5.956;2023-08-31T10:31:01;18.90;75.80
39045;DHT22;52192;52.002;5.956;2023-08-31T10:33:34;18.80;76.20
39045;DHT22;52192;52.002;5.956;2023-08-31T10:36:00;18.80;76.60
39045;DHT22;52192;52.002;5.956;2023-08-31T10:41:17;18.90;77.10
39045;DHT22;52192;52.002;5.956;2023-08-31T10:43:53;19.30;77.10
39045;DHT22;52192;52.002;5.956;2023-08-31T10:49:00;20.00;75.90
39045;DHT22;52192;52.002;5.956;2023-08-31T10:51:31;20.40;75.30
39045;DHT22;52192;52.002;5.956;2023-08-31T10:54:11;20.90;74.60
39045;DHT22;52192;52.002;5.956;2023-08-31T10:57:00;21.10;71.70
39045;DHT22;52192;52.002;5.956;2023-08-31T10:59:40;21.30;70.70
39045;DHT22;52192;52.002;5.956;2023-08-31T11:02:06;21.60;70.40
39045;DHT22;52192;52.002;5.956;2023-08-31T11:05:01;21.70;66.70
39045;DHT22;52192;52.002;5.956;2023-08-31T11:07:31;21.90;67.10
39045;DHT22;52192;52.002;5.956;2023-08-31T11:10:08;22.10;65.70
39045;DHT22;52192;52.002;5.956;2023-08-31T11:12:34;22.30;64.80
39045;DHT22;52192;52.002;5.956;2023-08-31T11:15:00;22.40;62.60
39045;DHT22;52192;52.002;5.956;2023-08-31T11:17:27;22.50;63.00
39045;DHT22;52192;52.002;5.956;2023-08-31T11:19:53;22.60;62.80
39045;DHT22;52192;52.002;5.956;2023-08-31T11:22:19;22.60;61.40
39045;DHT22;52192;52.002;5.956;2023-08-31T11:24:46;22.60;61.30
39045;DHT22;52192;52.002;5.956;2023-08-31T11:27:12;22.70;60.20
39045;DHT22;52192;52.002;5.956;2023-08-31T11:29:42;22.90;59.50
39045;DHT22;52192;52.002;5.956;2023-08-31T11:32:08;23.10;60.00
39045;DHT22;52192;52.002;5.956;2023-08-31T11:34:34;23.30;60.10
39045;DHT22;52192;52.002;5.956;2023-08-31T11:37:02;23.60;61.20
39045;DHT22;52192;52.002;5.956;2023-08-31T11:39:28;23.80;59.30
39045;DHT22;52192;52.002;5.956;2023-08-31T11:41:54;23.90;57.60
39045;DHT22;52192;52.002;5.956;2023-08-31T11:44:20;23.80;56.40
39045;DHT22;52192;52.002;5.956;2023-08-31T11:46:46;23.30;56.10
39045;DHT22;52192;52.002;5.956;2023-08-31T11:49:17;22.70;56.60
39045;DHT22;52192;52.002;5.956;2023-08-31T11:51:43;22.20;56.10
39045;DHT22;52192;52.002;5.956;2023-08-31T11:54:10;22.00;57.00
39045;DHT22;52192;52.002;5.956;2023-08-31T11:56:45;22.10;56.60
39045;DHT22;52192;52.002;5.956;2023-08-31T11:59:18;22.30;57.00
39045;DHT22;52192;52.002;5.956;2023-08-31T12:01:47;22.50;56.10
39045;DHT22;52192;52.002;5.956;2023-08-31T12:04:15;22.60;55.90
39045;DHT22;52192;52.002;5.956;2023-08-31T12:06:41;22.60;54.50
39045;DHT22;52192;52.002;5.956;2023-08-31T12:09:11;22.60;55.10
39045;DHT22;52192;52.002;5.956;2023-08-31T12:11:37;22.60;55.10
39045;DHT22;52192;52.002;5.956;2023-08-31T12:14:04;22.70;54.70
39045;DHT22;52192;52.002;5.956;2023-08-31T12:16:36;23.00;54.40
39045;DHT22;52192;52.002;5.956;2023-08-31T12:19:04;23.20;53.90
39045;DHT22;52192;52.002;5.956;2023-08-31T12:21:31;23.10;53.60
39045;DHT22;52192;52.002;5.956;2023-08-31T12:23:58;22.90;53.20
39045;DHT22;52192;52.002;5.956;2023-08-31T12:26:25;22.70;54.10
39045;DHT22;52192;52.002;5.956;2023-08-31T12:28:50;22.80;53.30
39045;DHT22;52192;52.002;5.956;2023-08-31T12:31:16;23.20;53.50
39045;DHT22;52192;52.002;5.956;2023-08-31T12:33:42;23.40;51.50
39045;DHT22;52192;52.002;5.956;2023-08-31T12:36:07;23.50;50.40
39045;DHT22;52192;52.002;5.956;2023-08-31T12:38:33;23.30;49.40
39045;DHT22;52192;52.002;5.956;2023-08-31T12:40:59;23.10;50.70
39045;DHT22;52192;52.002;5.956;2023-08-31T12:43:24;23.10;51.20
39045;DHT22;52192;52.002;5.956;2023-08-31T12:45:50;23.20;50.90
39045;DHT22;52192;52.002;5.956;2023-08-31T12:48:16;23.20;51.50
39045;DHT22;52192;52.002;5.956;2023-08-31T12:50:42;23.30;51.80
39045;DHT22;52192;52.002;5.956;2023-08-31T12:53:08;23.70;51.40
39045;DHT22;52192;52.002;5.956;2023-08-31T12:55:33;23.70;49.10
39045;DHT22;52192;52.002;5.956;2023-08-31T12:57:59;23.50;49.80
39045;DHT22;52192;52.002;5.956;2023-08-31T13:00:25;23.10;48.40
39045;DHT22;52192;52.002;5.956;2023-08-31T13:02:51;23.00;50.00
39045;DHT22;52192;52.002;5.956;2023-08-31T13:05:17;23.20;50.10
39045;DHT22;52192;52.002;5.956;2023-08-31T13:07:43;23.40;48.60
39045;DHT22;52192;52.002;5.956;2023-08-31T13:10:08;23.60;47.90
39045;DHT22;52192;52.002;5.956;2023-08-31T13:12:34;23.80;48.00
39045;DHT22;52192;52.002;5.956;2023-08-31T13:15:00;24.10;47.30
39045;DHT22;52192;52.002;5.956;2023-08-31T13:17:26;24.30;47.60
39045;DHT22;52192;52.002;5.956;2023-08-31T13:19:56;24.40;47.30
39045;DHT22;52192;52.002;5.956;2023-08-31T13:22:23;24.60;46.60
39045;DHT22;52192;52.002;5.956;2023-08-31T13:24:50;24.70;47.10
39045;DHT22;52192;52.002;5.956;2023-08-31T13:27:16;24.90;47.50
39045;DHT22;52192;52.002;5.956;2023-08-31T13:29:42;25.00;45.50
39045;DHT22;52192;52.002;5.956;2023-08-31T13:32:08;25.00;45.80
39045;DHT22;52192;52.002;5.956;2023-08-31T13:34:35;25.10;46.30
39045;DHT22;52192;52.002;5.956;2023-08-31T13:37:02;25.10;44.50
39045;DHT22;52192;52.002;5.956;2023-08-31T13:39:29;25.10;45.40
39045;DHT22;52192;52.002;5.956;2023-08-31T13:41:55;25.30;45.30
39045;DHT22;52192;52.002;5.956;2023-08-31T13:44:20;25.30;45.10
39045;DHT22;52192;52.002;5.956;2023-08-31T13:46:47;25.40;45.90
39045;DHT22;52192;52.002;5.956;2023-08-31T13:49:14;25.50;45.90
39045;DHT22;52192;52.002;5.956;2023-08-31T13:51:40;25.60;45.20
39045;DHT22;52192;52.002;5.956;2023-08-31T13:54:06;25.70;45.20
39045;DHT22;52192;52.002;5.956;2023-08-31T13:56:33;25.80;45.50
39045;DHT22;52192;52.002;5.956;2023-08-31T13:58:59;25.80;44.90
39045;DHT22;52192;52.002;5.956;2023-08-31T14:01:25;25.50;44.40
39045;DHT22;52192;52.002;5.956;2023-08-31T14:03:51;25.10;45.50
39045;DHT22;52192;52.002;5.956;2023-08-31T14:06:17;24.60;44.10
39045;DHT22;52192;52.002;5.956;2023-08-31T14:08:43;24.20;45.70
39045;DHT22;52192;52.002;5.956;2023-08-31T14:11:08;24.00;45.70
39045;DHT22;52192;52.002;5.956;2023-08-31T14:13:34;23.90;45.80
39045;DHT22;52192;52.002;5.956;2023-08-31T14:16:00;24.10;46.10
39045;DHT22;52192;52.002;5.956;2023-08-31T14:18:26;24.30;46.80
39045;DHT22;52192;52.002;5.956;2023-08-31T14:20:55;24.40;45.70
39045;DHT22;52192;52.002;5.956;2023-08-31T14:23:20;24.50;46.50
39045;DHT22;52192;52.002;5.956;2023-08-31T14:25:46;24.60;46.20
39045;DHT22;52192;52.002;5.956;2023-08-31T14:28:12;24.70;46.50
39045;DHT22;52192;52.002;5.956;2023-08-31T14:30:38;25.00;45.80
39045;DHT22;52192;52.002;5.956;2023-08-31T14:33:04;25.20;45.90
39045;DHT22;52192;52.002;5.956;2023-08-31T14:35:30;25.20;45.90
39045;DHT22;52192;52.002;5.956;2023-08-31T14:37:57;25.00;46.10
39045;DHT22;52192;52.002;5.956;2023-08-31T14:40:23;24.80;47.10
39045;DHT22;52192;52.002;5.956;2023-08-31T14:42:49;24.70;47.50
39045;DHT22;52192;52.002;5.956;2023-08-31T14:45:15;24.70;47.50
39045;DHT22;52192;52.002;5.956;2023-08-31T14:47:40;24.70;47.80
39045;DHT22;52192;52.002;5.956;2023-08-31T14:50:07;24.80;47.50
39045;DHT22;52192;52.002;5.956;2023-08-31T14:52:33;24.80;47.20
39045;DHT22;52192;52.002;5.956;2023-08-31T14:55:00;24.70;47.40
39045;DHT22;52192;52.002;5.956;2023-08-31T14:57:25;24.50;47.40
39045;DHT22;52192;52.002;5.956;2023-08-31T14:59:51;24.30;47.40
39045;DHT22;52192;52.002;5.956;2023-08-31T15:02:20;24.10;47.90
39045;DHT22;52192;52.002;5.956;2023-08-31T15:04:48;24.00;48.30
39045;DHT22;52192;52.002;5.956;2023-08-31T15:07:15;23.90;48.50
39045;DHT22;52192;52.002;5.956;2023-08-31T15:09:42;23.70;48.90
39045;DHT22;52192;52.002;5.956;2023-08-31T15:12:08;23.60;49.90
39045;DHT22;52192;52.002;5.956;2023-08-31T15:14:33;23.60;50.20
39045;DHT22;52192;52.002;5.956;2023-08-31T15:16:59;23.50;50.20
39045;DHT22;52192;52.002;5.956;2023-08-31T15:19:25;23.40;50.20
39045;DHT22;52192;52.002;5.956;2023-08-31T15:21:50;23.30;50.00
39045;DHT22;52192;52.002;5.956;2023-08-31T15:24:16;23.10;49.80
39045;DHT22;52192;52.002;5.956;2023-08-31T15:26:42;23.00;50.30
39045;DHT22;52192;52.002;5.956;2023-08-31T15:29:09;22.90;50.40
39045;DHT22;52192;52.002;5.956;2023-08-31T15:31:34;23.00;50.60
39045;DHT22;52192;52.002;5.956;2023-08-31T15:34:00;23.10;51.00
39045;DHT22;52192;52.002;5.956;2023-08-31T15:36:26;23.50;50.70
39045;DHT22;52192;52.002;5.956;2023-08-31T15:38:52;24.00;50.30
39045;DHT22;52192;52.002;5.956;2023-08-31T15:41:17;24.50;49.40